KNBG

New Orleans NAS JRB / Alvin Callender Field Airport

New Orleans, Louisiana, USA
METAR KNBG 210455Z AUTO 21003KT 10SM CLR 24/24 A3005 RMK AO2 SLP176 T02440244 PWINO $
Observed Flight Rules
Aug-21 @ 04:55 UTC (9 hours ago) Visual Flight Rules
Wind Visibility Clouds
210° at 3 knots 10 miles
  • Clear skies
Temperatures Readings
Current 24°C / 75°F
Dewpoint 24°C / 75°F
Humidity 100%
Altimeter 30.05" Hg
Pressure 1017.6 hPa
Elevation 1
METAR KNBG 210455Z AUTO 21003KT 10SM CLR 24/24 A3005 RMK AO2 SLP176 T02440244 PWINO $
Observed Flight Rules
Aug-21 @ 04:55 UTC
(9 hours ago)
VFR
Wind Visibility
210° at 3 knots 10 miles
Clouds
  • Clear skies
Temperature Dewpoint
24°C / 75°F 24°C / 75°F
Humidity Altimeter Pressure
100% 30.05" Hg 1017.6 hPa